sensor_id;sensor_type;location;lat;lon;timestamp;temperature;humidity
9975;DHT22;5028;50.974;4.968;2023-11-21T00:00:11;8.70;99.90
9975;DHT22;5028;50.974;4.968;2023-11-21T00:02:43;8.70;99.90
9975;DHT22;5028;50.974;4.968;2023-11-21T00:05:13;8.60;99.90
9975;DHT22;5028;50.974;4.968;2023-11-21T00:07:42;8.60;99.90
9975;DHT22;5028;50.974;4.968;2023-11-21T00:10:12;8.70;99.90
9975;DHT22;5028;50.974;4.968;2023-11-21T00:12:43;8.70;99.90
9975;DHT22;5028;50.974;4.968;2023-11-21T00:15:15;8.70;99.90
9975;DHT22;5028;50.974;4.968;2023-11-21T00:17:45;8.70;99.90
9975;DHT22;5028;50.974;4.968;2023-11-21T00:20:14;8.70;99.90
9975;DHT22;5028;50.974;4.968;2023-11-21T00:22:42;8.70;99.90
9975;DHT22;5028;50.974;4.968;2023-11-21T00:25:12;8.70;99.90
9975;DHT22;5028;50.974;4.968;2023-11-21T00:27:42;8.60;99.90
9975;DHT22;5028;50.974;4.968;2023-11-21T00:30:12;8.70;99.90
9975;DHT22;5028;50.974;4.968;2023-11-21T00:32:40;8.70;99.90
9975;DHT22;5028;50.974;4.968;2023-11-21T00:35:11;8.60;99.90
9975;DHT22;5028;50.974;4.968;2023-11-21T00:37:39;8.60;99.90
9975;DHT22;5028;50.974;4.968;2023-11-21T00:40:12;8.60;99.90
9975;DHT22;5028;50.974;4.968;2023-11-21T00:42:42;8.60;99.90
9975;DHT22;5028;50.974;4.968;2023-11-21T00:45:11;8.60;99.90
9975;DHT22;5028;50.974;4.968;2023-11-21T00:47:39;8.60;99.90
9975;DHT22;5028;50.974;4.968;2023-11-21T00:50:10;8.60;99.90
9975;DHT22;5028;50.974;4.968;2023-11-21T00:52:38;8.60;99.90
9975;DHT22;5028;50.974;4.968;2023-11-21T00:55:08;8.60;99.90
9975;DHT22;5028;50.974;4.968;2023-11-21T00:57:37;8.60;99.90
9975;DHT22;5028;50.974;4.968;2023-11-21T01:00:07;8.50;99.90
9975;DHT22;5028;50.974;4.968;2023-11-21T01:02:37;8.50;99.90
9975;DHT22;5028;50.974;4.968;2023-11-21T01:05:06;8.50;99.90
9975;DHT22;5028;50.974;4.968;2023-11-21T01:07:37;8.50;99.90
9975;DHT22;5028;50.974;4.968;2023-11-21T01:10:06;8.50;99.90
9975;DHT22;5028;50.974;4.968;2023-11-21T01:12:36;8.50;99.90
9975;DHT22;5028;50.974;4.968;2023-11-21T01:15:05;8.50;99.90
9975;DHT22;5028;50.974;4.968;2023-11-21T01:17:36;8.50;99.90
9975;DHT22;5028;50.974;4.968;2023-11-21T01:20:06;8.50;99.90
9975;DHT22;5028;50.974;4.968;2023-11-21T01:22:42;8.50;99.90
9975;DHT22;5028;50.974;4.968;2023-11-21T01:25:11;8.50;99.90
9975;DHT22;5028;50.974;4.968;2023-11-21T01:27:41;8.40;99.90
9975;DHT22;5028;50.974;4.968;2023-11-21T01:30:11;8.30;99.90
9975;DHT22;5028;50.974;4.968;2023-11-21T01:32:39;8.40;99.90
9975;DHT22;5028;50.974;4.968;2023-11-21T01:35:08;8.30;99.90
9975;DHT22;5028;50.974;4.968;2023-11-21T01:37:38;8.20;99.90
9975;DHT22;5028;50.974;4.968;2023-11-21T01:40:10;8.10;99.90
9975;DHT22;5028;50.974;4.968;2023-11-21T01:42:41;8.10;99.90
9975;DHT22;5028;50.974;4.968;2023-11-21T01:45:10;8.10;99.90
9975;DHT22;5028;50.974;4.968;2023-11-21T01:47:41;8.10;99.90
9975;DHT22;5028;50.974;4.968;2023-11-21T01:50:14;8.10;99.90
9975;DHT22;5028;50.974;4.968;2023-11-21T01:52:45;8.10;99.90
9975;DHT22;5028;50.974;4.968;2023-11-21T01:55:17;8.10;99.90
9975;DHT22;5028;50.974;4.968;2023-11-21T01:57:55;8.00;99.90
9975;DHT22;5028;50.974;4.968;2023-11-21T02:00:23;8.00;99.90
9975;DHT22;5028;50.974;4.968;2023-11-21T02:02:52;8.00;99.90
9975;DHT22;5028;50.974;4.968;2023-11-21T02:05:21;7.90;99.90
9975;DHT22;5028;50.974;4.968;2023-11-21T02:07:50;7.90;99.90
9975;DHT22;5028;50.974;4.968;2023-11-21T02:10:21;7.80;99.90
9975;DHT22;5028;50.974;4.968;2023-11-21T02:12:51;7.80;99.90
9975;DHT22;5028;50.974;4.968;2023-11-21T02:15:21;7.80;99.90
9975;DHT22;5028;50.974;4.968;2023-11-21T02:17:50;7.70;99.90
9975;DHT22;5028;50.974;4.968;2023-11-21T02:20:22;7.60;99.90
9975;DHT22;5028;50.974;4.968;2023-11-21T02:22:54;7.50;99.90
9975;DHT22;5028;50.974;4.968;2023-11-21T02:25:27;7.50;99.90
9975;DHT22;5028;50.974;4.968;2023-11-21T02:27:57;7.50;99.90
9975;DHT22;5028;50.974;4.968;2023-11-21T02:30:26;7.40;99.90
9975;DHT22;5028;50.974;4.968;2023-11-21T02:32:55;7.40;99.90
9975;DHT22;5028;50.974;4.968;2023-11-21T02:35:25;7.50;99.90
9975;DHT22;5028;50.974;4.968;2023-11-21T02:37:55;7.40;99.90
9975;DHT22;5028;50.974;4.968;2023-11-21T02:40:24;7.40;99.90
9975;DHT22;5028;50.974;4.968;2023-11-21T02:42:54;7.50;99.90
9975;DHT22;5028;50.974;4.968;2023-11-21T02:45:26;7.50;99.90
9975;DHT22;5028;50.974;4.968;2023-11-21T02:47:55;7.50;99.90
9975;DHT22;5028;50.974;4.968;2023-11-21T02:50:25;7.50;99.90
9975;DHT22;5028;50.974;4.968;2023-11-21T02:52:56;7.50;99.90
9975;DHT22;5028;50.974;4.968;2023-11-21T02:55:27;7.40;99.90
9975;DHT22;5028;50.974;4.968;2023-11-21T02:57:56;7.50;99.90
9975;DHT22;5028;50.974;4.968;2023-11-21T03:00:25;7.50;99.90
9975;DHT22;5028;50.974;4.968;2023-11-21T03:02:55;7.50;99.90
9975;DHT22;5028;50.974;4.968;2023-11-21T03:05:24;7.50;99.90
9975;DHT22;5028;50.974;4.968;2023-11-21T03:07:52;7.50;99.90
9975;DHT22;5028;50.974;4.968;2023-11-21T03:10:23;7.50;99.90
9975;DHT22;5028;50.974;4.968;2023-11-21T03:12:51;7.50;99.90
9975;DHT22;5028;50.974;4.968;2023-11-21T03:15:20;7.60;99.90
9975;DHT22;5028;50.974;4.968;2023-11-21T03:17:48;7.50;99.90
9975;DHT22;5028;50.974;4.968;2023-11-21T03:20:17;7.60;99.90
9975;DHT22;5028;50.974;4.968;2023-11-21T03:22:46;7.60;99.90
9975;DHT22;5028;50.974;4.968;2023-11-21T03:25:15;7.60;99.90
9975;DHT22;5028;50.974;4.968;2023-11-21T03:27:46;7.60;99.90
9975;DHT22;5028;50.974;4.968;2023-11-21T03:30:15;7.50;99.90
9975;DHT22;5028;50.974;4.968;2023-11-21T03:32:43;7.60;99.90
9975;DHT22;5028;50.974;4.968;2023-11-21T03:35:12;7.60;99.90
9975;DHT22;5028;50.974;4.968;2023-11-21T03:37:40;7.60;99.90
9975;DHT22;5028;50.974;4.968;2023-11-21T03:40:10;7.50;99.90
9975;DHT22;5028;50.974;4.968;2023-11-21T03:42:40;7.50;99.90
9975;DHT22;5028;50.974;4.968;2023-11-21T03:45:11;7.50;99.90
9975;DHT22;5028;50.974;4.968;2023-11-21T03:47:41;7.50;99.90
9975;DHT22;5028;50.974;4.968;2023-11-21T03:50:11;7.50;99.90
9975;DHT22;5028;50.974;4.968;2023-11-21T03:52:40;7.50;99.90
9975;DHT22;5028;50.974;4.968;2023-11-21T03:55:09;7.50;99.90
9975;DHT22;5028;50.974;4.968;2023-11-21T03:57:37;7.50;99.90
9975;DHT22;5028;50.974;4.968;2023-11-21T04:00:07;7.50;99.90
9975;DHT22;5028;50.974;4.968;2023-11-21T04:02:38;7.50;99.90
9975;DHT22;5028;50.974;4.968;2023-11-21T04:05:08;7.50;99.90
9975;DHT22;5028;50.974;4.968;2023-11-21T04:07:36;7.50;99.90
9975;DHT22;5028;50.974;4.968;2023-11-21T04:10:07;7.40;99.90
9975;DHT22;5028;50.974;4.968;2023-11-21T04:12:36;7.40;99.90
9975;DHT22;5028;50.974;4.968;2023-11-21T04:15:05;7.30;99.90
9975;DHT22;5028;50.974;4.968;2023-11-21T04:17:37;7.30;99.90
9975;DHT22;5028;50.974;4.968;2023-11-21T04:20:07;7.30;99.90
9975;DHT22;5028;50.974;4.968;2023-11-21T04:22:38;7.30;99.90
9975;DHT22;5028;50.974;4.968;2023-11-21T04:25:09;7.30;99.90
9975;DHT22;5028;50.974;4.968;2023-11-21T04:27:39;7.30;99.90
9975;DHT22;5028;50.974;4.968;2023-11-21T04:30:08;7.30;99.90
9975;DHT22;5028;50.974;4.968;2023-11-21T04:32:39;7.30;99.90
9975;DHT22;5028;50.974;4.968;2023-11-21T04:35:08;7.30;99.90
9975;DHT22;5028;50.974;4.968;2023-11-21T04:37:37;7.30;99.90
9975;DHT22;5028;50.974;4.968;2023-11-21T04:40:06;7.40;99.90
9975;DHT22;5028;50.974;4.968;2023-11-21T04:42:36;7.50;99.90
9975;DHT22;5028;50.974;4.968;2023-11-21T04:45:05;7.50;99.90
9975;DHT22;5028;50.974;4.968;2023-11-21T04:47:41;7.60;99.90
9975;DHT22;5028;50.974;4.968;2023-11-21T04:50:10;7.60;99.90
9975;DHT22;5028;50.974;4.968;2023-11-21T04:52:39;7.70;99.90
9975;DHT22;5028;50.974;4.968;2023-11-21T04:55:08;7.70;99.90
9975;DHT22;5028;50.974;4.968;2023-11-21T04:57:38;7.70;99.90
9975;DHT22;5028;50.974;4.968;2023-11-21T05:00:10;7.80;99.90
9975;DHT22;5028;50.974;4.968;2023-11-21T05:02:41;7.80;99.90
9975;DHT22;5028;50.974;4.968;2023-11-21T05:05:10;7.80;99.90
9975;DHT22;5028;50.974;4.968;2023-11-21T05:07:39;7.90;99.90
9975;DHT22;5028;50.974;4.968;2023-11-21T05:10:09;7.90;99.90
9975;DHT22;5028;50.974;4.968;2023-11-21T05:12:40;7.80;99.90
9975;DHT22;5028;50.974;4.968;2023-11-21T05:15:10;7.80;99.90
9975;DHT22;5028;50.974;4.968;2023-11-21T05:17:41;7.90;99.90
9975;DHT22;5028;50.974;4.968;2023-11-21T05:20:12;7.80;99.90
9975;DHT22;5028;50.974;4.968;2023-11-21T05:22:41;7.90;99.90
9975;DHT22;5028;50.974;4.968;2023-11-21T05:25:10;7.80;99.90
9975;DHT22;5028;50.974;4.968;2023-11-21T05:27:39;7.80;99.90
9975;DHT22;5028;50.974;4.968;2023-11-21T05:30:08;7.90;99.90
9975;DHT22;5028;50.974;4.968;2023-11-21T05:32:41;7.90;99.90
9975;DHT22;5028;50.974;4.968;2023-11-21T05:35:10;7.80;99.90
9975;DHT22;5028;50.974;4.968;2023-11-21T05:37:44;7.90;99.90
9975;DHT22;5028;50.974;4.968;2023-11-21T05:40:14;7.90;99.90
9975;DHT22;5028;50.974;4.968;2023-11-21T05:42:44;7.90;99.90
9975;DHT22;5028;50.974;4.968;2023-11-21T05:45:13;8.00;99.90
9975;DHT22;5028;50.974;4.968;2023-11-21T05:47:43;8.10;99.90
9975;DHT22;5028;50.974;4.968;2023-11-21T05:50:14;8.10;99.90
9975;DHT22;5028;50.974;4.968;2023-11-21T05:52:44;8.10;99.90
9975;DHT22;5028;50.974;4.968;2023-11-21T05:55:14;8.10;99.90
9975;DHT22;5028;50.974;4.968;2023-11-21T05:57:44;8.10;99.90
9975;DHT22;5028;50.974;4.968;2023-11-21T06:00:14;8.20;99.90
9975;DHT22;5028;50.974;4.968;2023-11-21T06:02:50;8.10;99.90
9975;DHT22;5028;50.974;4.968;2023-11-21T06:05:22;8.20;99.90
9975;DHT22;5028;50.974;4.968;2023-11-21T06:07:52;8.20;99.90
9975;DHT22;5028;50.974;4.968;2023-11-21T06:10:22;8.30;99.90
9975;DHT22;5028;50.974;4.968;2023-11-21T06:12:52;8.30;99.90
9975;DHT22;5028;50.974;4.968;2023-11-21T06:15:21;8.30;99.90
9975;DHT22;5028;50.974;4.968;2023-11-21T06:17:52;8.30;99.90
9975;DHT22;5028;50.974;4.968;2023-11-21T06:20:21;8.30;99.90
9975;DHT22;5028;50.974;4.968;2023-11-21T06:22:50;8.40;99.90
9975;DHT22;5028;50.974;4.968;2023-11-21T06:25:20;8.40;99.90
9975;DHT22;5028;50.974;4.968;2023-11-21T06:27:49;8.40;99.90
9975;DHT22;5028;50.974;4.968;2023-11-21T06:30:19;8.40;99.90
9975;DHT22;5028;50.974;4.968;2023-11-21T06:32:49;8.40;99.90
9975;DHT22;5028;50.974;4.968;2023-11-21T06:35:20;8.40;99.90
9975;DHT22;5028;50.974;4.968;2023-11-21T06:37:48;8.50;99.90
9975;DHT22;5028;50.974;4.968;2023-11-21T06:40:19;8.50;99.90
9975;DHT22;5028;50.974;4.968;2023-11-21T06:42:48;8.50;99.90
9975;DHT22;5028;50.974;4.968;2023-11-21T06:45:17;8.50;99.90
9975;DHT22;5028;50.974;4.968;2023-11-21T06:47:47;8.60;99.90
9975;DHT22;5028;50.974;4.968;2023-11-21T06:50:18;8.50;99.90
9975;DHT22;5028;50.974;4.968;2023-11-21T06:52:48;8.60;99.90
9975;DHT22;5028;50.974;4.968;2023-11-21T06:55:17;8.60;99.90
9975;DHT22;5028;50.974;4.968;2023-11-21T06:57:45;8.60;99.90
9975;DHT22;5028;50.974;4.968;2023-11-21T07:00:16;8.70;99.90
9975;DHT22;5028;50.974;4.968;2023-11-21T07:02:45;8.70;99.90
9975;DHT22;5028;50.974;4.968;2023-11-21T07:05:13;8.80;99.90
9975;DHT22;5028;50.974;4.968;2023-11-21T07:07:44;8.80;99.90
9975;DHT22;5028;50.974;4.968;2023-11-21T07:10:12;8.80;99.90
9975;DHT22;5028;50.974;4.968;2023-11-21T07:12:41;8.80;99.90
9975;DHT22;5028;50.974;4.968;2023-11-21T07:15:09;8.80;99.90
9975;DHT22;5028;50.974;4.968;2023-11-21T07:17:38;8.80;99.90
9975;DHT22;5028;50.974;4.968;2023-11-21T07:20:08;8.90;99.90
9975;DHT22;5028;50.974;4.968;2023-11-21T07:22:38;8.90;99.90
9975;DHT22;5028;50.974;4.968;2023-11-21T07:25:08;8.90;99.90
9975;DHT22;5028;50.974;4.968;2023-11-21T07:27:38;8.90;99.90
9975;DHT22;5028;50.974;4.968;2023-11-21T07:30:07;8.90;99.90
9975;DHT22;5028;50.974;4.968;2023-11-21T07:32:37;9.00;99.90
9975;DHT22;5028;50.974;4.968;2023-11-21T07:35:08;9.00;99.90
9975;DHT22;5028;50.974;4.968;2023-11-21T07:37:37;9.00;99.90
9975;DHT22;5028;50.974;4.968;2023-11-21T07:40:08;9.00;99.90
9975;DHT22;5028;50.974;4.968;2023-11-21T07:42:38;9.00;99.90
9975;DHT22;5028;50.974;4.968;2023-11-21T07:45:08;9.00;99.90
9975;DHT22;5028;50.974;4.968;2023-11-21T07:47:36;9.00;99.90
9975;DHT22;5028;50.974;4.968;2023-11-21T07:50:07;9.10;99.90
9975;DHT22;5028;50.974;4.968;2023-11-21T07:52:36;9.10;99.90
9975;DHT22;5028;50.974;4.968;2023-11-21T07:55:05;9.10;99.90
9975;DHT22;5028;50.974;4.968;2023-11-21T07:57:36;9.10;99.90
9975;DHT22;5028;50.974;4.968;2023-11-21T08:00:06;9.10;99.90
9975;DHT22;5028;50.974;4.968;2023-11-21T08:02:36;9.10;99.90
9975;DHT22;5028;50.974;4.968;2023-11-21T08:05:05;9.10;99.90
9975;DHT22;5028;50.974;4.968;2023-11-21T08:07:41;9.20;99.90
9975;DHT22;5028;50.974;4.968;2023-11-21T08:10:10;9.20;99.90
9975;DHT22;5028;50.974;4.968;2023-11-21T08:12:40;9.20;99.90
9975;DHT22;5028;50.974;4.968;2023-11-21T08:15:10;9.20;99.90
9975;DHT22;5028;50.974;4.968;2023-11-21T08:17:38;9.20;99.90
9975;DHT22;5028;50.974;4.968;2023-11-21T08:20:08;9.30;99.90
9975;DHT22;5028;50.974;4.968;2023-11-21T08:22:38;9.30;99.90
9975;DHT22;5028;50.974;4.968;2023-11-21T08:25:08;9.30;99.90
9975;DHT22;5028;50.974;4.968;2023-11-21T08:27:37;9.30;99.90
9975;DHT22;5028;50.974;4.968;2023-11-21T08:30:08;9.40;99.90
9975;DHT22;5028;50.974;4.968;2023-11-21T08:32:37;9.30;99.90
9975;DHT22;5028;50.974;4.968;2023-11-21T08:35:06;9.40;99.90
9975;DHT22;5028;50.974;4.968;2023-11-21T08:37:35;9.40;99.90
9975;DHT22;5028;50.974;4.968;2023-11-21T08:40:07;9.40;99.90
9975;DHT22;5028;50.974;4.968;2023-11-21T08:42:36;9.40;99.90
9975;DHT22;5028;50.974;4.968;2023-11-21T08:45:08;9.40;99.90
9975;DHT22;5028;50.974;4.968;2023-11-21T08:47:37;9.50;99.90
9975;DHT22;5028;50.974;4.968;2023-11-21T08:50:07;9.50;99.90
9975;DHT22;5028;50.974;4.968;2023-11-21T08:52:36;9.50;99.90
9975;DHT22;5028;50.974;4.968;2023-11-21T08:55:05;9.50;99.90
9975;DHT22;5028;50.974;4.968;2023-11-21T08:57:35;9.50;99.90
9975;DHT22;5028;50.974;4.968;2023-11-21T09:00:07;9.60;99.90
9975;DHT22;5028;50.974;4.968;2023-11-21T09:02:38;9.60;99.90
9975;DHT22;5028;50.974;4.968;2023-11-21T09:05:09;9.60;99.90
9975;DHT22;5028;50.974;4.968;2023-11-21T09:07:39;9.60;99.90
9975;DHT22;5028;50.974;4.968;2023-11-21T09:10:09;9.60;99.90
9975;DHT22;5028;50.974;4.968;2023-11-21T09:12:38;9.70;99.90
9975;DHT22;5028;50.974;4.968;2023-11-21T09:15:09;9.70;99.90
9975;DHT22;5028;50.974;4.968;2023-11-21T09:17:38;9.80;99.90
9975;DHT22;5028;50.974;4.968;2023-11-21T09:20:08;9.80;99.90
9975;DHT22;5028;50.974;4.968;2023-11-21T09:22:37;9.90;99.90
9975;DHT22;5028;50.974;4.968;2023-11-21T09:25:07;9.90;99.90
9975;DHT22;5028;50.974;4.968;2023-11-21T09:27:35;9.90;99.90
9975;DHT22;5028;50.974;4.968;2023-11-21T09:30:05;9.90;99.90
9975;DHT22;5028;50.974;4.968;2023-11-21T09:32:39;9.90;99.90
9975;DHT22;5028;50.974;4.968;2023-11-21T09:35:09;9.90;99.90
9975;DHT22;5028;50.974;4.968;2023-11-21T09:37:38;9.90;99.90
9975;DHT22;5028;50.974;4.968;2023-11-21T09:40:10;9.90;99.90
9975;DHT22;5028;50.974;4.968;2023-11-21T09:42:49;9.90;99.90
9975;DHT22;5028;50.974;4.968;2023-11-21T09:45:21;9.90;99.90
9975;DHT22;5028;50.974;4.968;2023-11-21T09:47:55;9.90;99.90
9975;DHT22;5028;50.974;4.968;2023-11-21T09:50:24;9.80;99.90
9975;DHT22;5028;50.974;4.968;2023-11-21T09:53:00;9.90;99.90
9975;DHT22;5028;50.974;4.968;2023-11-21T09:55:35;9.90;99.90
9975;DHT22;5028;50.974;4.968;2023-11-21T09:58:04;10.00;99.90
9975;DHT22;5028;50.974;4.968;2023-11-21T10:00:35;10.00;99.90
9975;DHT22;5028;50.974;4.968;2023-11-21T10:03:05;10.10;99.90
9975;DHT22;5028;50.974;4.968;2023-11-21T10:05:34;10.20;99.90
9975;DHT22;5028;50.974;4.968;2023-11-21T10:08:06;10.20;99.90
9975;DHT22;5028;50.974;4.968;2023-11-21T10:10:35;10.30;99.90
9975;DHT22;5028;50.974;4.968;2023-11-21T10:13:06;10.30;99.90
9975;DHT22;5028;50.974;4.968;2023-11-21T10:15:35;10.30;99.90
9975;DHT22;5028;50.974;4.968;2023-11-21T10:18:07;10.30;99.90
9975;DHT22;5028;50.974;4.968;2023-11-21T10:20:36;10.30;99.90
9975;DHT22;5028;50.974;4.968;2023-11-21T10:23:05;10.20;99.90
9975;DHT22;5028;50.974;4.968;2023-11-21T10:25:35;10.20;99.90
9975;DHT22;5028;50.974;4.968;2023-11-21T10:28:04;10.20;99.90
9975;DHT22;5028;50.974;4.968;2023-11-21T10:30:34;10.20;99.90
9975;DHT22;5028;50.974;4.968;2023-11-21T10:33:08;10.30;99.90
9975;DHT22;5028;50.974;4.968;2023-11-21T10:35:43;10.20;99.90
9975;DHT22;5028;50.974;4.968;2023-11-21T10:38:15;10.30;99.90
9975;DHT22;5028;50.974;4.968;2023-11-21T10:40:44;10.30;99.90
9975;DHT22;5028;50.974;4.968;2023-11-21T10:43:14;10.30;99.90
9975;DHT22;5028;50.974;4.968;2023-11-21T10:45:43;10.30;99.90
9975;DHT22;5028;50.974;4.968;2023-11-21T10:48:14;10.30;99.90
9975;DHT22;5028;50.974;4.968;2023-11-21T10:50:45;10.40;99.90
9975;DHT22;5028;50.974;4.968;2023-11-21T10:53:14;10.30;99.90
9975;DHT22;5028;50.974;4.968;2023-11-21T10:55:43;10.20;99.90
9975;DHT22;5028;50.974;4.968;2023-11-21T10:58:14;10.20;99.90
9975;DHT22;5028;50.974;4.968;2023-11-21T11:00:43;10.30;99.90
9975;DHT22;5028;50.974;4.968;2023-11-21T11:03:15;10.30;99.90
9975;DHT22;5028;50.974;4.968;2023-11-21T11:05:45;10.30;99.90
9975;DHT22;5028;50.974;4.968;2023-11-21T11:08:21;10.30;99.90
9975;DHT22;5028;50.974;4.968;2023-11-21T11:10:55;10.30;99.90
9975;DHT22;5028;50.974;4.968;2023-11-21T11:13:25;10.30;99.90
9975;DHT22;5028;50.974;4.968;2023-11-21T11:15:58;10.30;99.90
9975;DHT22;5028;50.974;4.968;2023-11-21T11:18:30;10.30;99.90
9975;DHT22;5028;50.974;4.968;2023-11-21T11:21:07;10.30;99.90
9975;DHT22;5028;50.974;4.968;2023-11-21T11:23:47;10.20;99.90
9975;DHT22;5028;50.974;4.968;2023-11-21T11:26:27;10.20;99.90
9975;DHT22;5028;50.974;4.968;2023-11-21T11:29:07;10.20;99.90
9975;DHT22;5028;50.974;4.968;2023-11-21T11:32:00;10.10;99.90
9975;DHT22;5028;50.974;4.968;2023-11-21T11:34:36;10.10;99.90
9975;DHT22;5028;50.974;4.968;2023-11-21T11:37:07;10.10;99.90
9975;DHT22;5028;50.974;4.968;2023-11-21T11:39:37;10.10;99.90
9975;DHT22;5028;50.974;4.968;2023-11-21T11:42:12;10.10;99.90
9975;DHT22;5028;50.974;4.968;2023-11-21T11:44:49;10.10;99.90
9975;DHT22;5028;50.974;4.968;2023-11-21T11:47:25;10.10;99.90
9975;DHT22;5028;50.974;4.968;2023-11-21T11:50:11;10.20;99.90
9975;DHT22;5028;50.974;4.968;2023-11-21T11:52:45;10.20;99.90
9975;DHT22;5028;50.974;4.968;2023-11-21T11:55:15;10.10;99.90
9975;DHT22;5028;50.974;4.968;2023-11-21T11:57:46;10.10;99.90
9975;DHT22;5028;50.974;4.968;2023-11-21T12:00:16;10.10;99.90
9975;DHT22;5028;50.974;4.968;2023-11-21T12:02:47;10.20;99.90
9975;DHT22;5028;50.974;4.968;2023-11-21T12:05:18;10.20;99.90
9975;DHT22;5028;50.974;4.968;2023-11-21T12:07:50;10.10;99.90
9975;DHT22;5028;50.974;4.968;2023-11-21T12:10:22;10.10;99.90
9975;DHT22;5028;50.974;4.968;2023-11-21T12:12:52;10.20;99.90
9975;DHT22;5028;50.974;4.968;2023-11-21T12:15:21;10.20;99.90
9975;DHT22;5028;50.974;4.968;2023-11-21T12:17:50;10.20;99.90
9975;DHT22;5028;50.974;4.968;2023-11-21T12:20:21;10.30;99.90
9975;DHT22;5028;50.974;4.968;2023-11-21T12:22:51;10.30;99.90
9975;DHT22;5028;50.974;4.968;2023-11-21T12:25:21;10.40;99.90
9975;DHT22;5028;50.974;4.968;2023-11-21T12:27:50;10.50;99.90
9975;DHT22;5028;50.974;4.968;2023-11-21T12:30:21;10.50;99.90
9975;DHT22;5028;50.974;4.968;2023-11-21T12:32:50;10.50;99.90
9975;DHT22;5028;50.974;4.968;2023-11-21T12:35:24;10.50;99.90
9975;DHT22;5028;50.974;4.968;2023-11-21T12:37:55;10.60;99.90
9975;DHT22;5028;50.974;4.968;2023-11-21T12:40:25;10.60;99.90
9975;DHT22;5028;50.974;4.968;2023-11-21T12:42:55;10.70;99.90
9975;DHT22;5028;50.974;4.968;2023-11-21T12:45:27;10.60;99.90
9975;DHT22;5028;50.974;4.968;2023-11-21T12:47:57;10.70;99.90
9975;DHT22;5028;50.974;4.968;2023-11-21T12:50:30;10.60;99.90
9975;DHT22;5028;50.974;4.968;2023-11-21T12:53:03;10.60;99.90
9975;DHT22;5028;50.974;4.968;2023-11-21T12:55:33;10.70;99.90
9975;DHT22;5028;50.974;4.968;2023-11-21T12:58:05;10.70;99.90
9975;DHT22;5028;50.974;4.968;2023-11-21T13:00:39;10.70;99.90
9975;DHT22;5028;50.974;4.968;2023-11-21T13:03:10;10.80;99.90
9975;DHT22;5028;50.974;4.968;2023-11-21T13:05:42;10.90;99.90
9975;DHT22;5028;50.974;4.968;2023-11-21T13:08:15;10.90;99.90
9975;DHT22;5028;50.974;4.968;2023-11-21T13:10:50;10.90;99.90
9975;DHT22;5028;50.974;4.968;2023-11-21T13:13:19;10.80;99.90
9975;DHT22;5028;50.974;4.968;2023-11-21T13:15:52;10.90;99.90
9975;DHT22;5028;50.974;4.968;2023-11-21T13:18:23;10.90;99.90
9975;DHT22;5028;50.974;4.968;2023-11-21T13:20:56;10.90;99.90
9975;DHT22;5028;50.974;4.968;2023-11-21T13:23:25;10.90;99.90
9975;DHT22;5028;50.974;4.968;2023-11-21T13:25:54;10.90;99.90
9975;DHT22;5028;50.974;4.968;2023-11-21T13:28:32;10.90;99.90
9975;DHT22;5028;50.974;4.968;2023-11-21T13:31:03;10.90;99.90
9975;DHT22;5028;50.974;4.968;2023-11-21T13:33:38;10.90;99.90
9975;DHT22;5028;50.974;4.968;2023-11-21T13:36:11;10.80;99.90
9975;DHT22;5028;50.974;4.968;2023-11-21T13:38:41;10.80;99.90
9975;DHT22;5028;50.974;4.968;2023-11-21T13:41:11;10.80;99.90
9975;DHT22;5028;50.974;4.968;2023-11-21T13:43:41;10.80;99.90
9975;DHT22;5028;50.974;4.968;2023-11-21T13:46:15;10.80;99.90
9975;DHT22;5028;50.974;4.968;2023-11-21T13:48:49;10.90;99.90
9975;DHT22;5028;50.974;4.968;2023-11-21T13:51:25;11.00;99.90
9975;DHT22;5028;50.974;4.968;2023-11-21T13:54:04;11.00;99.90
9975;DHT22;5028;50.974;4.968;2023-11-21T13:56:37;11.00;99.90
9975;DHT22;5028;50.974;4.968;2023-11-21T13:59:07;11.00;99.90
9975;DHT22;5028;50.974;4.968;2023-11-21T14:01:45;11.00;99.90
9975;DHT22;5028;50.974;4.968;2023-11-21T14:04:24;10.90;99.90
9975;DHT22;5028;50.974;4.968;2023-11-21T14:07:23;10.90;99.90
9975;DHT22;5028;50.974;4.968;2023-11-21T14:10:00;10.90;99.90
9975;DHT22;5028;50.974;4.968;2023-11-21T14:12:29;10.90;99.90
9975;DHT22;5028;50.974;4.968;2023-11-21T14:15:06;11.00;99.90
9975;DHT22;5028;50.974;4.968;2023-11-21T14:17:37;11.00;99.90
9975;DHT22;5028;50.974;4.968;2023-11-21T14:20:09;11.00;99.90
9975;DHT22;5028;50.974;4.968;2023-11-21T14:22:45;11.00;99.90
9975;DHT22;5028;50.974;4.968;2023-11-21T14:25:15;11.00;99.90
9975;DHT22;5028;50.974;4.968;2023-11-21T14:27:46;10.90;99.90
9975;DHT22;5028;50.974;4.968;2023-11-21T14:30:15;11.00;99.90
9975;DHT22;5028;50.974;4.968;2023-11-21T14:32:46;10.90;99.90
9975;DHT22;5028;50.974;4.968;2023-11-21T14:35:16;10.90;99.90
9975;DHT22;5028;50.974;4.968;2023-11-21T14:37:47;10.90;99.90
9975;DHT22;5028;50.974;4.968;2023-11-21T14:40:16;10.90;99.90
9975;DHT22;5028;50.974;4.968;2023-11-21T14:42:48;10.90;99.90
9975;DHT22;5028;50.974;4.968;2023-11-21T14:45:19;10.80;99.90
9975;DHT22;5028;50.974;4.968;2023-11-21T14:47:47;10.80;99.90
9975;DHT22;5028;50.974;4.968;2023-11-21T14:50:24;10.70;99.90
9975;DHT22;5028;50.974;4.968;2023-11-21T14:53:22;10.70;99.90
9975;DHT22;5028;50.974;4.968;2023-11-21T14:56:10;10.60;99.90
9975;DHT22;5028;50.974;4.968;2023-11-21T14:58:45;10.70;99.90
9975;DHT22;5028;50.974;4.968;2023-11-21T15:01:12;10.70;99.90
9975;DHT22;5028;50.974;4.968;2023-11-21T15:03:41;10.60;99.90
9975;DHT22;5028;50.974;4.968;2023-11-21T15:06:15;10.60;99.90
9975;DHT22;5028;50.974;4.968;2023-11-21T15:08:53;10.60;99.90
9975;DHT22;5028;50.974;4.968;2023-11-21T15:11:41;10.60;99.90
9975;DHT22;5028;50.974;4.968;2023-11-21T15:14:10;10.60;99.90
9975;DHT22;5028;50.974;4.968;2023-11-21T15:16:43;10.60;99.90
9975;DHT22;5028;50.974;4.968;2023-11-21T15:19:15;10.60;99.90
9975;DHT22;5028;50.974;4.968;2023-11-21T15:21:45;10.60;99.90
9975;DHT22;5028;50.974;4.968;2023-11-21T15:24:15;10.60;99.90
9975;DHT22;5028;50.974;4.968;2023-11-21T15:26:44;10.60;99.90
9975;DHT22;5028;50.974;4.968;2023-11-21T15:29:12;10.60;99.90
9975;DHT22;5028;50.974;4.968;2023-11-21T15:31:42;10.60;99.90
9975;DHT22;5028;50.974;4.968;2023-11-21T15:34:15;10.60;99.90
9975;DHT22;5028;50.974;4.968;2023-11-21T15:36:44;10.60;99.90
9975;DHT22;5028;50.974;4.968;2023-11-21T15:39:12;10.60;99.90
9975;DHT22;5028;50.974;4.968;2023-11-21T15:41:42;10.60;99.90
9975;DHT22;5028;50.974;4.968;2023-11-21T15:44:10;10.70;99.90
9975;DHT22;5028;50.974;4.968;2023-11-21T15:46:39;10.60;99.90
9975;DHT22;5028;50.974;4.968;2023-11-21T15:49:10;10.60;99.90
9975;DHT22;5028;50.974;4.968;2023-11-21T15:51:42;10.60;99.90
9975;DHT22;5028;50.974;4.968;2023-11-21T15:54:12;10.60;99.90
9975;DHT22;5028;50.974;4.968;2023-11-21T15:56:42;10.60;99.90
9975;DHT22;5028;50.974;4.968;2023-11-21T15:59:12;10.50;99.90
9975;DHT22;5028;50.974;4.968;2023-11-21T16:01:41;10.50;99.90
9975;DHT22;5028;50.974;4.968;2023-11-21T16:04:11;10.50;99.90
9975;DHT22;5028;50.974;4.968;2023-11-21T16:06:42;10.50;99.90
9975;DHT22;5028;50.974;4.968;2023-11-21T16:09:13;10.40;99.90
9975;DHT22;5028;50.974;4.968;2023-11-21T16:11:50;10.40;99.90
9975;DHT22;5028;50.974;4.968;2023-11-21T16:14:25;10.40;99.90
9975;DHT22;5028;50.974;4.968;2023-11-21T16:16:54;10.40;99.90
9975;DHT22;5028;50.974;4.968;2023-11-21T16:19:23;10.40;99.90
9975;DHT22;5028;50.974;4.968;2023-11-21T16:21:52;10.30;99.90
9975;DHT22;5028;50.974;4.968;2023-11-21T16:24:20;10.30;99.90
9975;DHT22;5028;50.974;4.968;2023-11-21T16:26:51;10.30;99.90
9975;DHT22;5028;50.974;4.968;2023-11-21T16:29:19;10.30;99.90
9975;DHT22;5028;50.974;4.968;2023-11-21T16:31:48;10.30;99.90
9975;DHT22;5028;50.974;4.968;2023-11-21T16:34:20;10.30;99.90